createdAt,value
2023-03-21T00:00:13.094Z,100318.19
2023-03-21T00:03:16.465Z,100320.81
2023-03-21T00:06:19.213Z,100320.03
2023-03-21T00:09:22.241Z,100315.19
2023-03-21T00:12:24.997Z,100314.53
2023-03-21T00:15:39.930Z,100318.41
2023-03-21T00:18:47.459Z,100316.31
2023-03-21T00:25:15.417Z,100309.19
2023-03-21T00:28:18.282Z,100303.88
2023-03-21T00:31:21.529Z,100296.38
2023-03-21T00:34:36.501Z,100295.06
2023-03-21T00:37:46.452Z,100300.88
2023-03-21T00:40:49.699Z,100288.72
2023-03-21T00:43:55.714Z,100292.25
2023-03-21T00:47:07.489Z,100292.25
2023-03-21T00:50:12.046Z,100290.22
2023-03-21T00:53:15.665Z,100285.84
2023-03-21T00:56:18.373Z,100283.91
2023-03-21T00:59:21.620Z,100284.69
2023-03-21T01:02:26.861Z,100277.72
2023-03-21T01:05:49.477Z,100287.25
2023-03-21T01:08:53.519Z,100279.97
2023-03-21T01:11:56.512Z,100279.97
2023-03-21T01:14:59.220Z,100273.66
2023-03-21T01:18:02.457Z,100277.91
2023-03-21T01:21:09.352Z,100269.97
2023-03-21T01:24:12.231Z,100266.88
2023-03-21T01:27:16.121Z,100265.56
2023-03-21T01:30:22.755Z,100268.16
2023-03-21T01:33:26.687Z,100261.84
2023-03-21T01:36:29.706Z,100261.84
2023-03-21T01:39:37.869Z,100253.91
2023-03-21T01:42:42.423Z,100256.50
2023-03-21T01:46:10.479Z,100259.88
2023-03-21T01:49:36.172Z,100261.47
2023-03-21T01:52:56.324Z,100259.84
2023-03-21T01:56:12.486Z,100267.09
2023-03-21T01:59:51.449Z,100259.97
2023-03-21T02:03:23.684Z,100254.44
2023-03-21T02:06:49.513Z,100261.22
2023-03-21T02:10:22.119Z,100259.38
2023-03-21T02:13:28.577Z,100249.47
2023-03-21T02:16:47.692Z,100244.91
2023-03-21T02:20:29.785Z,100243.31
2023-03-21T02:23:59.448Z,100245.91
2023-03-21T02:27:11.927Z,100243.31
2023-03-21T02:30:37.488Z,100241.69
2023-03-21T02:34:23.462Z,100245.06
2023-03-21T02:37:38.871Z,100241.69
2023-03-21T02:41:10.092Z,100249.28
2023-03-21T02:44:30.077Z,100237.00
2023-03-21T02:47:38.045Z,100249.00
2023-03-21T02:50:52.793Z,100244.59
2023-03-21T02:54:26.435Z,100249.63
2023-03-21T02:57:33.851Z,100245.22
2023-03-21T03:00:44.890Z,100248.03
2023-03-21T03:03:52.344Z,100241.50
2023-03-21T03:07:13.103Z,100234.53
2023-03-21T03:10:51.332Z,100238.78
2023-03-21T03:14:46.816Z,100242.81
2023-03-21T03:18:05.052Z,100239.41
2023-03-21T03:21:33.803Z,100241.25
2023-03-21T03:25:21.407Z,100244.81
2023-03-21T03:28:35.669Z,100242.06
2023-03-21T03:31:46.288Z,100240.91
2023-03-21T03:34:56.385Z,100243.50
2023-03-21T03:38:07.105Z,100242.22
2023-03-21T03:41:19.507Z,100239.34
2023-03-21T03:44:28.591Z,100246.00
2023-03-21T03:47:56.410Z,100240.69
2023-03-21T03:51:16.360Z,100246.38
2023-03-21T03:54:42.972Z,100237.63
2023-03-21T03:57:46.014Z,100241.56
2023-03-21T04:00:49.537Z,100251.31
2023-03-21T04:04:03.512Z,100246.78
2023-03-21T04:07:13.817Z,100253.44
2023-03-21T04:10:18.400Z,100252.63
2023-03-21T04:13:21.868Z,100259.28
2023-03-21T04:16:46.608Z,100257.03
2023-03-21T04:19:55.521Z,100243.28
2023-03-21T04:23:00.616Z,100256.88
2023-03-21T04:26:04.713Z,100258.81
2023-03-21T04:29:12.404Z,100267.25
2023-03-21T04:32:54.168Z,100267.56
2023-03-21T04:35:59.378Z,100262.84
2023-03-21T04:39:12.499Z,100262.84
2023-03-21T04:42:18.640Z,100257.69
2023-03-21T04:45:21.384Z,100265.59
2023-03-21T04:48:24.823Z,100264.31
2023-03-21T04:51:28.055Z,100262.22
2023-03-21T04:54:32.503Z,100268.19
2023-03-21T04:57:35.473Z,100264.78
2023-03-21T05:00:39.219Z,100271.28
2023-03-21T05:03:42.296Z,100270.63
2023-03-21T05:06:46.060Z,100272.59
2023-03-21T05:09:48.937Z,100268.88
2023-03-21T05:12:52.904Z,100272.91
2023-03-21T05:15:56.085Z,100277.28
2023-03-21T05:19:03.975Z,100275.50
2023-03-21T05:22:12.225Z,100281.16
2023-03-21T05:25:18.320Z,100277.63
2023-03-21T05:28:41.407Z,100285.22
2023-03-21T05:31:46.767Z,100277.94
2023-03-21T05:34:50.992Z,100289.75
2023-03-21T05:37:57.886Z,100285.72
2023-03-21T05:41:02.795Z,100284.41
2023-03-21T05:44:07.669Z,100290.41
2023-03-21T05:47:13.691Z,100280.97
2023-03-21T05:50:20.538Z,100295.25
2023-03-21T05:53:36.873Z,100287.28
2023-03-21T05:56:39.695Z,100289.25
2023-03-21T05:59:46.201Z,100295.72
2023-03-21T06:02:51.073Z,100290.22
2023-03-21T06:06:19.942Z,100294.22
2023-03-21T06:09:35.490Z,100294.97
2023-03-21T06:12:39.830Z,100292.13
2023-03-21T06:15:55.952Z,100291.91
2023-03-21T06:19:01.339Z,100284.66
2023-03-21T06:22:21.512Z,100282.19
2023-03-21T06:25:25.793Z,100286.47
2023-03-21T06:28:29.721Z,100288.16
2023-03-21T06:31:32.875Z,100289.34
2023-03-21T06:34:39.545Z,100293.84
2023-03-21T06:37:43.610Z,100287.03
2023-03-21T06:40:47.574Z,100296.19
2023-03-21T06:43:51.168Z,100294.97
2023-03-21T06:46:55.527Z,100294.00
2023-03-21T06:49:58.630Z,100300.69
2023-03-21T06:53:03.657Z,100290.97
2023-03-21T06:56:12.908Z,100303.72
2023-03-21T06:59:18.421Z,100303.28
2023-03-21T07:02:34.783Z,100300.66
2023-03-21T07:05:50.994Z,100305.25
2023-03-21T07:08:55.383Z,100296.78
2023-03-21T07:11:59.216Z,100296.22
2023-03-21T07:15:11.863Z,100303.47
2023-03-21T07:18:16.598Z,100306.63
2023-03-21T07:21:20.448Z,100304.13
2023-03-21T07:24:23.527Z,100309.50
2023-03-21T07:27:26.425Z,100297.91
2023-03-21T07:30:29.217Z,100304.41
2023-03-21T07:33:33.208Z,100299.78
2023-03-21T07:36:37.896Z,100303.56
2023-03-21T07:39:43.500Z,100295.44
2023-03-21T07:42:49.078Z,100311.66
2023-03-21T07:45:59.433Z,100302.56
2023-03-21T07:49:02.806Z,100307.84
2023-03-21T07:52:07.940Z,100308.28
2023-03-21T07:55:11.672Z,100315.56
2023-03-21T07:58:14.409Z,100317.97
2023-03-21T08:01:17.400Z,100312.56
2023-03-21T08:04:20.304Z,100314.09
2023-03-21T08:07:23.187Z,100313.00
2023-03-21T08:10:26.328Z,100313.94
2023-03-21T08:13:29.476Z,100319.81
2023-03-21T08:16:32.292Z,100312.94
2023-03-21T08:19:35.781Z,100314.25
2023-03-21T08:22:38.824Z,100300.56
2023-03-21T08:25:41.552Z,100304.72
2023-03-21T08:28:45.409Z,100305.84
2023-03-21T08:31:48.206Z,100311.34
2023-03-21T08:34:51.176Z,100307.16
2023-03-21T08:37:53.954Z,100311.63
2023-03-21T08:40:58.595Z,100310.66
2023-03-21T08:44:05.038Z,100305.25
2023-03-21T08:47:08.353Z,100313.09
2023-03-21T08:50:14.557Z,100306.88
2023-03-21T08:53:17.272Z,100305.06
2023-03-21T08:56:20.105Z,100300.22
2023-03-21T08:59:22.948Z,100315.72
2023-03-21T09:02:25.971Z,100307.06
2023-03-21T09:05:29.045Z,100303.63
2023-03-21T09:08:31.911Z,100311.50
2023-03-21T09:11:35.520Z,100304.63
2023-03-21T09:14:38.809Z,100308.25
2023-03-21T09:17:49.073Z,100303.84
2023-03-21T09:20:52.052Z,100323.41
2023-03-21T09:23:59.564Z,100311.50
2023-03-21T09:27:03.329Z,100315.91
2023-03-21T09:30:07.965Z,100309.44
2023-03-21T09:33:13.216Z,100316.31
2023-03-21T09:36:17.178Z,100319.34
2023-03-21T09:39:23.320Z,100324.00
2023-03-21T09:42:45.125Z,100320.53
2023-03-21T09:45:59.944Z,100315.72
2023-03-21T09:49:10.027Z,100306.69
2023-03-21T09:52:38.609Z,100302.03
2023-03-21T09:55:43.125Z,100305.47
2023-03-21T09:58:53.526Z,100297.16
2023-03-21T10:01:58.805Z,100303.31
2023-03-21T10:05:06.812Z,100300.59
2023-03-21T10:08:36.570Z,100297.59
2023-03-21T10:11:47.988Z,100289.44
2023-03-21T10:14:54.972Z,100292.38
2023-03-21T10:18:23.624Z,100286.22
2023-03-21T10:21:58.654Z,100289.38
2023-03-21T10:24:52.148Z,100284.94
2023-03-21T10:27:56.580Z,100283.91
2023-03-21T10:31:04.599Z,100276.53
2023-03-21T10:34:32.565Z,100280.13
2023-03-21T10:37:36.500Z,100271.34
2023-03-21T10:40:39.270Z,100279.94
2023-03-21T10:43:44.982Z,100273.53
2023-03-21T10:46:56.548Z,100272.34
2023-03-21T10:50:10.106Z,100256.13
2023-03-21T10:53:40.146Z,100261.06
2023-03-21T10:57:01.020Z,100255.03
2023-03-21T11:00:15.928Z,100259.63
2023-03-21T11:03:23.522Z,100264.31
2023-03-21T11:06:32.641Z,100253.69
2023-03-21T11:09:56.623Z,100254.69
2023-03-21T11:13:05.826Z,100247.22
2023-03-21T11:16:23.078Z,100243.78
2023-03-21T11:19:33.945Z,100235.41
2023-03-21T11:22:43.650Z,100236.09
2023-03-21T11:25:50.699Z,100236.91
2023-03-21T11:28:55.140Z,100236.06
2023-03-21T11:32:02.242Z,100221.44
2023-03-21T11:35:14.226Z,100222.81
2023-03-21T11:38:27.490Z,100213.91
2023-03-21T11:41:33.449Z,100217.31
2023-03-21T11:44:44.316Z,100219.13
2023-03-21T11:47:49.662Z,100212.13
2023-03-21T11:51:01.198Z,100202.09
2023-03-21T11:54:12.706Z,100195.41
2023-03-21T11:57:30.970Z,100189.91
2023-03-21T12:00:43.527Z,100188.56
2023-03-21T12:03:49.094Z,100184.22
2023-03-21T12:07:00.770Z,100174.84
2023-03-21T12:10:12.411Z,100171.00
2023-03-21T12:13:36.607Z,100174.34
2023-03-21T12:16:55.010Z,100166.19
2023-03-21T12:19:57.708Z,100176.38
2023-03-21T12:23:19.237Z,100164.44
2023-03-21T12:26:32.636Z,100158.69
2023-03-21T12:30:02.680Z,100155.38
2023-03-21T12:33:31.341Z,100158.81
2023-03-21T12:37:04.830Z,100151.50
2023-03-21T12:40:22.430Z,100138.16
2023-03-21T12:43:41.443Z,100146.84
2023-03-21T12:46:51.224Z,100145.44
2023-03-21T12:50:03.705Z,100132.34
2023-03-21T12:53:37.948Z,100129.81
2023-03-21T12:56:52.665Z,100124.25
2023-03-21T13:00:01.506Z,100131.06
2023-03-21T13:03:22.854Z,100125.09
2023-03-21T13:06:30.348Z,100113.53
2023-03-21T13:09:43.493Z,100104.63
2023-03-21T13:13:10.927Z,100088.81
2023-03-21T13:16:24.765Z,100090.31
2023-03-21T13:19:36.740Z,100088.25
2023-03-21T13:22:39.702Z,100080.25
2023-03-21T13:25:49.290Z,100078.28
2023-03-21T13:28:52.764Z,100092.72
2023-03-21T13:32:07.541Z,100086.44
2023-03-21T13:35:16.523Z,100086.03
2023-03-21T13:38:30.316Z,100091.59
2023-03-21T13:41:39.156Z,100080.88
2023-03-21T13:44:50.317Z,100079.16
2023-03-21T13:48:25.766Z,100066.88
2023-03-21T13:51:28.848Z,100078.25
2023-03-21T13:54:54.163Z,100086.00
2023-03-21T13:57:57.310Z,100074.69
2023-03-21T14:01:29.075Z,100070.22
2023-03-21T14:04:43.219Z,100067.41
2023-03-21T14:08:12.287Z,100056.53
2023-03-21T14:11:19.651Z,100063.97
2023-03-21T14:14:26.800Z,100049.56
2023-03-21T14:17:34.944Z,100051.41
2023-03-21T14:20:38.916Z,100050.84
2023-03-21T14:23:42.014Z,100049.47
2023-03-21T14:26:49.814Z,100048.72
2023-03-21T14:29:53.568Z,100043.97
2023-03-21T14:32:59.734Z,100038.19
2023-03-21T14:36:15.691Z,100043.91
2023-03-21T14:39:24.206Z,100034.38
2023-03-21T14:42:27.357Z,100035.84
2023-03-21T14:45:33.625Z,100026.94
2023-03-21T14:48:36.298Z,100032.25
2023-03-21T14:51:41.986Z,100029.88
2023-03-21T14:54:47.323Z,100030.66
2023-03-21T14:57:50.439Z,100034.56
2023-03-21T15:00:57.063Z,100038.72
2023-03-21T15:04:03.109Z,100027.56
2023-03-21T15:07:07.947Z,100024.31
2023-03-21T15:10:18.184Z,100024.78
2023-03-21T15:13:25.789Z,100017.09
2023-03-21T15:16:29.683Z,100023.00
2023-03-21T15:19:37.721Z,100019.59
2023-03-21T15:22:46.152Z,100010.97
2023-03-21T15:25:48.917Z,100020.44
2023-03-21T15:28:57.681Z,100011.78
2023-03-21T15:32:08.021Z,100021.09
2023-03-21T15:35:17.057Z,100013.81
2023-03-21T15:38:53.402Z,100012.56
2023-03-21T15:42:04.155Z,100012.53
2023-03-21T15:45:23.951Z,100011.16
2023-03-21T15:48:28.637Z,100007.50
2023-03-21T15:51:32.837Z,100009.22
2023-03-21T15:54:43.600Z,100014.00
2023-03-21T15:57:47.604Z,100011.47
2023-03-21T16:00:55.859Z,100022.22
2023-03-21T16:04:05.910Z,100022.13
2023-03-21T16:07:17.185Z,100019.34
2023-03-21T16:10:33.827Z,100021.41
2023-03-21T16:13:37.315Z,100020.09
2023-03-21T16:16:40.300Z,100021.97
2023-03-21T16:19:44.142Z,100032.47
2023-03-21T16:22:47.900Z,100031.28
2023-03-21T16:25:56.094Z,100026.88
2023-03-21T16:29:00.357Z,100032.16
2023-03-21T16:32:06.385Z,100034.34
2023-03-21T16:35:09.679Z,100033.38
2023-03-21T16:38:13.961Z,100045.44
2023-03-21T16:41:17.249Z,100037.00
2023-03-21T16:44:20.764Z,100038.00
2023-03-21T16:47:24.349Z,100039.59
2023-03-21T16:50:34.893Z,100040.38
2023-03-21T16:53:37.698Z,100043.75
2023-03-21T16:56:44.982Z,100047.72
2023-03-21T16:59:48.748Z,100057.13
2023-03-21T17:02:53.628Z,100051.88
2023-03-21T17:05:56.379Z,100061.50
2023-03-21T17:08:59.730Z,100059.03
2023-03-21T17:12:02.602Z,100063.38
2023-03-21T17:15:06.286Z,100061.94
2023-03-21T17:18:10.526Z,100067.88
2023-03-21T17:21:16.490Z,100067.41
2023-03-21T17:24:19.350Z,100067.97
2023-03-21T17:27:22.098Z,100065.63
2023-03-21T17:30:31.554Z,100069.84
2023-03-21T17:33:34.374Z,100067.16
2023-03-21T17:36:41.651Z,100062.66
2023-03-21T17:39:45.440Z,100066.75
2023-03-21T17:42:49.191Z,100072.06
2023-03-21T17:45:52.353Z,100072.44
2023-03-21T17:48:55.796Z,100067.72
2023-03-21T17:51:58.861Z,100068.69
2023-03-21T17:55:02.333Z,100073.94
2023-03-21T17:58:06.371Z,100081.22
2023-03-21T18:01:09.199Z,100084.34
2023-03-21T18:04:11.988Z,100096.53
2023-03-21T18:07:24.491Z,100091.75
2023-03-21T18:10:38.784Z,100095.88
2023-03-21T18:13:43.391Z,100102.94
2023-03-21T18:16:47.707Z,100099.44
2023-03-21T18:19:50.710Z,100095.41
2023-03-21T18:22:55.575Z,100094.69
2023-03-21T18:25:59.542Z,100093.97
2023-03-21T18:32:29.140Z,100095.78
2023-03-21T18:35:32.334Z,100095.00
2023-03-21T18:38:37.221Z,100091.56
2023-03-21T18:41:40.548Z,100096.03
2023-03-21T18:44:47.002Z,100096.63
2023-03-21T18:47:50.458Z,100099.69
2023-03-21T18:50:53.536Z,100100.94
2023-03-21T18:53:57.914Z,100099.31
2023-03-21T19:00:26.016Z,100106.53
2023-03-21T19:03:36.781Z,100110.53
2023-03-21T19:06:40.350Z,100109.31
2023-03-21T19:10:05.240Z,100106.47
2023-03-21T19:13:08.039Z,100108.50
2023-03-21T19:16:11.682Z,100105.66
2023-03-21T19:19:18.638Z,100109.44
2023-03-21T19:22:22.063Z,100104.06
2023-03-21T19:25:24.952Z,100110.56
2023-03-21T19:28:28.208Z,100120.25
2023-03-21T19:31:31.582Z,100113.16
2023-03-21T19:34:34.844Z,100116.47
2023-03-21T19:37:37.835Z,100130.72
2023-03-21T19:40:42.113Z,100131.41
2023-03-21T19:43:54.121Z,100134.50
2023-03-21T19:46:58.461Z,100137.09
2023-03-21T19:53:24.402Z,100134.22
2023-03-21T19:56:28.020Z,100141.69
2023-03-21T19:59:32.236Z,100114.50
2023-03-21T20:02:36.760Z,100142.50
2023-03-21T20:05:41.274Z,100144.28
2023-03-21T20:12:07.684Z,100149.66
2023-03-21T20:15:17.656Z,100151.44
2023-03-21T20:18:24.177Z,100142.38
2023-03-21T20:21:34.883Z,100141.75
2023-03-21T20:24:45.941Z,100151.00
2023-03-21T20:28:06.511Z,100150.03
2023-03-21T20:31:15.235Z,100152.44
2023-03-21T20:34:18.324Z,100156.34
2023-03-21T20:37:21.069Z,100143.38
2023-03-21T20:40:24.324Z,100146.94
2023-03-21T20:46:51.453Z,100152.78
2023-03-21T20:49:56.961Z,100158.09
2023-03-21T20:53:07.212Z,100155.84
2023-03-21T20:56:10.412Z,100160.69
2023-03-21T20:59:20.964Z,100171.69
2023-03-21T21:02:28.371Z,100170.91
2023-03-21T21:05:34.827Z,100180.78
2023-03-21T21:08:39.461Z,100179.78
2023-03-21T21:15:08.374Z,100173.50
2023-03-21T21:18:12.440Z,100176.25
2023-03-21T21:21:17.308Z,100171.22
2023-03-21T21:24:20.454Z,100184.66
2023-03-21T21:27:23.455Z,100181.72
2023-03-21T21:30:26.180Z,100180.59
2023-03-21T21:33:29.369Z,100182.88
2023-03-21T21:36:32.132Z,100178.94
2023-03-21T21:39:38.705Z,100181.66
2023-03-21T21:42:43.838Z,100179.25
2023-03-21T21:45:48.299Z,100181.84
2023-03-21T21:48:51.720Z,100175.06
2023-03-21T21:51:56.376Z,100174.31
2023-03-21T21:55:02.274Z,100182.72
2023-03-21T21:58:08.506Z,100176.75
2023-03-21T22:01:11.278Z,100163.28
2023-03-21T22:04:15.018Z,100176.56
2023-03-21T22:07:17.800Z,100182.22
2023-03-21T22:10:27.632Z,100182.38
2023-03-21T22:13:30.406Z,100178.19
2023-03-21T22:16:33.163Z,100176.72
2023-03-21T22:19:37.104Z,100176.25
2023-03-21T22:22:41.995Z,100172.03
2023-03-21T22:25:50.558Z,100177.22
2023-03-21T22:28:53.603Z,100177.69
2023-03-21T22:31:56.766Z,100177.03
2023-03-21T22:35:02.431Z,100180.75
2023-03-21T22:38:05.599Z,100185.09
2023-03-21T22:41:08.328Z,100179.75
2023-03-21T22:44:11.318Z,100188.28
2023-03-21T22:47:14.024Z,100183.25
2023-03-21T22:50:16.834Z,100181.31
2023-03-21T22:53:19.492Z,100177.13
2023-03-21T22:56:22.253Z,100183.41
2023-03-21T22:59:25.754Z,100181.16
2023-03-21T23:02:28.492Z,100179.22
2023-03-21T23:05:31.365Z,100180.34
2023-03-21T23:08:34.225Z,100171.31
2023-03-21T23:11:37.869Z,100172.91
2023-03-21T23:14:41.056Z,100170.19
2023-03-21T23:17:44.322Z,100169.88
2023-03-21T23:20:49.871Z,100173.25
2023-03-21T23:23:53.106Z,100170.84
2023-03-21T23:26:55.996Z,100170.34
2023-03-21T23:29:58.751Z,100167.06
2023-03-21T23:33:01.498Z,100173.47
2023-03-21T23:36:21.349Z,100177.63
2023-03-21T23:39:24.646Z,100176.91
2023-03-21T23:42:29.542Z,100173.84
2023-03-21T23:45:33.049Z,100166.75
2023-03-21T23:48:36.078Z,100164.94
2023-03-21T23:51:39.268Z,100169.31
2023-03-21T23:54:42.050Z,100166.53
2023-03-21T23:57:44.769Z,100159.66
